Time;durP1;ratioP1;P1;durP2;ratioP2;P2;SDS_P1;SDS_P2;PMS_P1;PMS_P2;Temp;Humidity;BMP_temperature;BMP_pressure;BME280_temperature;BME280_humidity;BME280_pressure;Samples;Min_cycle;Max_cycle;Signal;HPM_P1;HPM_P2
2022/02/04 00:22:07;;;;;;;10.40;8.03;;;4.30;88.50;;;;;;6240560;28;21009;-67
2022/02/04 00:25:18;;;;;;;11.00;7.30;;;4.30;89.10;;;;;;6241881;28;20475;-66
2022/02/04 00:28:32;;;;;;;10.53;7.87;;;4.30;89.10;;;;;;6249799;28;20495;-66
2022/02/04 00:31:40;;;;;;;8.70;6.30;;;4.30;89.10;;;;;;6250450;28;20485;-66
2022/02/04 00:34:49;;;;;;;12.47;9.13;;;4.30;89.20;;;;;;6251111;28;20478;-66
2022/02/04 00:38:02;;;;;;;8.80;6.97;;;4.20;89.20;;;;;;6249715;28;20463;-66
2022/02/04 00:41:09;;;;;;;12.57;7.30;;;4.20;89.40;;;;;;6226286;28;20538;-67
2022/02/04 00:44:19;;;;;;;6.80;5.90;;;4.10;89.70;;;;;;6227226;28;20472;-65
2022/02/04 00:47:26;;;;;;;9.77;7.10;;;4.00;90.00;;;;;;6229372;28;20523;-68
2022/02/04 00:50:35;;;;;;;10.03;7.10;;;3.90;90.00;;;;;;6231658;28;20518;-68
2022/02/04 00:53:47;;;;;;;10.73;7.90;;;4.00;90.10;;;;;;6228821;28;20549;-68
2022/02/04 00:57:08;;;;;;;10.33;7.47;;;3.90;90.00;;;;;;6228163;28;20491;-68
2022/02/04 01:13:41;;;;;;;9.93;7.20;;;3.90;91.60;;;;;;6242368;28;20472;-68
2022/02/04 01:26:57;;;;;;;7.50;6.70;;;3.90;91.10;;;;;;6231040;28;20475;-69
2022/02/04 01:30:03;;;;;;;12.43;6.20;;;3.90;91.30;;;;;;6229526;28;20471;-69
2022/02/04 01:33:11;;;;;;;7.13;6.43;;;3.80;91.30;;;;;;6236007;28;20467;-68
2022/02/04 01:36:16;;;;;;;9.60;6.40;;;3.80;91.30;;;;;;6244610;28;20802;-68
2022/02/04 01:39:19;;;;;;;7.80;7.10;;;3.80;91.30;;;;;;6229438;28;20899;-68
2022/02/04 01:42:22;;;;;;;8.93;6.23;;;3.80;91.20;;;;;;6228835;28;20538;-69
2022/02/04 01:45:25;;;;;;;8.00;7.20;;;3.80;91.20;;;;;;6223464;28;20479;-68
2022/02/04 01:48:30;;;;;;;9.73;7.30;;;3.70;91.20;;;;;;6224448;28;20784;-69
2022/02/04 01:51:34;;;;;;;8.40;6.87;;;3.70;91.50;;;;;;6227440;28;20495;-68
2022/02/04 01:54:37;;;;;;;8.90;7.70;;;3.60;91.60;;;;;;6227696;28;20476;-68
2022/02/04 01:57:40;;;;;;;12.60;6.87;;;3.60;92.00;;;;;;6226663;28;20484;-69
2022/02/04 02:00:43;;;;;;;7.93;6.90;;;3.40;92.50;;;;;;6226480;28;20855;-69
2022/02/04 02:03:47;;;;;;;8.47;6.70;;;3.40;92.80;;;;;;6226716;28;20490;-68
2022/02/04 02:06:55;;;;;;;10.33;7.87;;;3.50;92.90;;;;;;6228295;28;20467;-68
2022/02/04 02:10:01;;;;;;;15.30;9.30;;;3.50;93.10;;;;;;6229321;28;20480;-68
2022/02/04 02:13:14;;;;;;;9.67;8.40;;;3.50;93.00;;;;;;6229731;28;20468;-68
2022/02/04 02:16:45;;;;;;;11.80;8.40;;;3.60;93.00;;;;;;6228361;28;20979;-68
2022/02/04 02:37:19;;;;;;;7.20;5.87;;;3.60;92.90;;;;;;6227407;28;20472;-70
2022/02/04 02:47:08;;;;;;;7.37;5.87;;;3.50;93.60;;;;;;6224732;28;20619;-68
2022/02/04 02:57:30;;;;;;;7.10;5.80;;;3.40;94.20;;;;;;6219019;28;20476;-68
2022/02/04 03:00:49;;;;;;;7.30;6.00;;;3.40;94.30;;;;;;6226597;28;20471;-69
2022/02/04 03:03:55;;;;;;;11.57;5.70;;;3.40;94.40;;;;;;6225080;28;20475;-69
2022/02/04 03:06:58;;;;;;;11.07;8.77;;;3.40;94.50;;;;;;6226517;28;20472;-68
2022/02/04 03:10:01;;;;;;;15.17;10.37;;;3.40;94.70;;;;;;6226341;28;20476;-68
2022/02/04 03:13:07;;;;;;;11.30;9.67;;;3.30;94.60;;;;;;6225773;28;20530;-68
2022/02/04 03:16:12;;;;;;;14.23;10.20;;;3.30;94.80;;;;;;6226261;28;20476;-69
2022/02/04 03:19:16;;;;;;;15.87;11.33;;;3.20;94.80;;;;;;6226294;28;20979;-69
2022/02/04 03:22:19;;;;;;;11.27;8.90;;;3.20;94.80;;;;;;6225939;28;20503;-70
2022/02/04 03:25:24;;;;;;;14.10;8.73;;;3.10;95.00;;;;;;6225972;28;20526;-70
2022/02/04 03:28:30;;;;;;;15.67;8.83;;;3.10;95.40;;;;;;6225869;28;20475;-68
2022/02/04 03:31:39;;;;;;;9.67;7.70;;;3.10;95.70;;;;;;6225767;28;20476;-69
2022/02/04 03:34:42;;;;;;;13.43;9.10;;;3.10;95.30;;;;;;6226119;28;20480;-69
2022/02/04 03:37:45;;;;;;;14.03;8.43;;;3.00;95.80;;;;;;6217072;28;20480;-69
2022/02/04 03:40:48;;;;;;;12.00;8.57;;;3.00;95.50;;;;;;6249856;28;20474;-68
2022/02/04 03:43:53;;;;;;;11.60;7.23;;;3.00;95.50;;;;;;6228269;28;20515;-68
2022/02/04 03:46:56;;;;;;;8.70;6.77;;;3.00;95.50;;;;;;6225602;28;20466;-68
2022/02/04 03:49:59;;;;;;;9.37;7.77;;;3.00;95.40;;;;;;6225977;28;20460;-67
2022/02/04 03:53:03;;;;;;;7.40;6.70;;;2.90;95.30;;;;;;6224187;28;20489;-67
2022/02/04 03:56:06;;;;;;;9.20;5.70;;;2.90;95.40;;;;;;6225588;28;20455;-67
2022/02/04 03:59:10;;;;;;;7.33;6.63;;;2.90;95.40;;;;;;6225338;28;20476;-67
2022/02/04 04:02:14;;;;;;;16.50;7.13;;;2.80;95.40;;;;;;6225846;28;20480;-67
2022/02/04 04:05:17;;;;;;;8.13;6.30;;;2.80;95.10;;;;;;6207062;28;20550;-68
2022/02/04 04:08:20;;;;;;;6.63;5.63;;;2.70;95.30;;;;;;6201101;28;20965;-69
2022/02/04 04:11:24;;;;;;;6.33;5.50;;;2.70;95.30;;;;;;6200586;28;20547;-69
2022/02/04 04:14:28;;;;;;;5.17;4.77;;;2.60;95.30;;;;;;6201239;28;20481;-69
2022/02/04 04:17:38;;;;;;;7.13;5.40;;;2.60;95.30;;;;;;6201167;28;20473;-69
2022/02/04 04:20:42;;;;;;;8.13;5.27;;;2.60;95.30;;;;;;6220106;28;20468;-67
2022/02/04 04:23:45;;;;;;;10.40;6.07;;;2.60;95.30;;;;;;6230062;28;20848;-67
2022/02/04 04:26:48;;;;;;;6.50;5.67;;;2.60;95.30;;;;;;6230659;28;20797;-67
2022/02/04 04:29:53;;;;;;;7.27;5.97;;;2.60;95.30;;;;;;6231107;28;20478;-68
2022/02/04 04:32:57;;;;;;;6.57;5.47;;;2.50;95.40;;;;;;6230240;28;20851;-68
2022/02/04 04:36:00;;;;;;;6.60;5.57;;;2.50;95.40;;;;;;6230650;28;20472;-68
2022/02/04 04:39:11;;;;;;;13.43;5.90;;;2.50;95.50;;;;;;6220741;28;20533;-68
2022/02/04 04:42:18;;;;;;;6.67;5.30;;;2.50;95.60;;;;;;6230886;28;20484;-69
2022/02/04 04:46:02;;;;;;;8.00;6.00;;;2.40;95.60;;;;;;6229742;28;20479;-69
2022/02/04 05:26:20;;;;;;;9.37;5.60;;;2.60;96.30;;;;;;6230218;28;20455;-68
2022/02/04 05:29:24;;;;;;;8.10;5.67;;;2.60;96.20;;;;;;6229592;28;20471;-68
2022/02/04 05:32:27;;;;;;;6.93;5.90;;;2.70;96.20;;;;;;6228853;28;20486;-68
2022/02/04 05:35:31;;;;;;;8.20;6.10;;;2.80;96.10;;;;;;6228962;28;20821;-68
2022/02/04 05:38:35;;;;;;;7.03;6.20;;;2.80;96.20;;;;;;6229168;28;20762;-68
2022/02/04 05:41:43;;;;;;;7.67;6.30;;;2.80;96.10;;;;;;6224492;28;20822;-68
2022/02/04 05:44:53;;;;;;;8.10;6.17;;;2.80;96.20;;;;;;6228542;28;20476;-68
2022/02/04 05:48:00;;;;;;;7.03;6.10;;;2.70;96.10;;;;;;6228147;28;20534;-69
2022/02/04 05:51:26;;;;;;;6.73;6.13;;;2.80;96.20;;;;;;6227331;28;20490;-68
2022/02/04 05:54:42;;;;;;;10.47;6.77;;;2.70;96.10;;;;;;6227362;28;20529;-68
2022/02/04 05:57:56;;;;;;;8.70;6.63;;;2.70;96.20;;;;;;6228737;28;20532;-68
2022/02/04 06:01:13;;;;;;;8.13;6.60;;;2.70;96.20;;;;;;6227952;28;20472;-68
2022/02/04 06:04:29;;;;;;;9.67;6.13;;;2.80;96.10;;;;;;6227901;28;20495;-68
2022/02/04 06:07:40;;;;;;;7.53;6.37;;;2.70;96.00;;;;;;6227607;28;20484;-68
2022/02/04 06:11:06;;;;;;;7.97;6.47;;;2.70;96.00;;;;;;6227632;28;20476;-68
2022/02/04 06:14:27;;;;;;;8.17;6.40;;;2.70;96.00;;;;;;6227959;28;20892;-68
2022/02/04 06:24:18;;;;;;;6.60;5.93;;;2.50;96.50;;;;;;6228123;28;20476;-69
2022/02/04 06:27:23;;;;;;;6.50;5.83;;;2.50;96.30;;;;;;6227689;28;20479;-69
2022/02/04 06:30:26;;;;;;;8.70;6.97;;;2.50;96.30;;;;;;6227222;28;20802;-69
2022/02/04 06:33:29;;;;;;;9.00;6.20;;;2.50;96.30;;;;;;6226915;28;20480;-69
2022/02/04 06:36:32;;;;;;;7.57;5.80;;;2.40;96.60;;;;;;6227242;28;20818;-69
2022/02/04 06:39:38;;;;;;;7.50;6.43;;;2.40;96.60;;;;;;6226182;28;20530;-69
2022/02/04 06:42:41;;;;;;;9.13;6.97;;;2.40;96.80;;;;;;6228461;28;20760;-69
2022/02/04 06:45:44;;;;;;;8.47;7.20;;;2.40;96.90;;;;;;6218944;28;20480;-69
2022/02/04 06:48:51;;;;;;;10.50;7.60;;;2.40;97.10;;;;;;6226871;28;20468;-69
2022/02/04 06:51:54;;;;;;;10.67;8.90;;;2.40;97.40;;;;;;6226721;28;20486;-69
2022/02/04 06:54:59;;;;;;;14.80;9.20;;;2.30;97.80;;;;;;6227038;28;20464;-69
2022/02/04 06:58:03;;;;;;;12.60;9.70;;;2.30;97.90;;;;;;6226700;28;20479;-69
2022/02/04 07:01:06;;;;;;;13.10;8.47;;;2.30;98.00;;;;;;6226889;28;20484;-69
2022/02/04 07:04:09;;;;;;;13.37;10.67;;;2.40;98.10;;;;;;6226808;28;20491;-69
2022/02/04 07:07:13;;;;;;;10.37;8.43;;;2.40;98.10;;;;;;6226304;28;20476;-69
2022/02/04 07:10:23;;;;;;;11.60;8.47;;;2.50;98.10;;;;;;6226479;28;20483;-69
2022/02/04 07:13:37;;;;;;;11.70;7.70;;;2.50;97.90;;;;;;6225746;28;20473;-68
2022/02/04 07:16:55;;;;;;;12.70;8.93;;;2.60;97.70;;;;;;6226255;28;20479;-69
2022/02/04 07:19:58;;;;;;;9.83;7.70;;;2.70;97.50;;;;;;6228748;28;20478;-68
2022/02/04 07:23:01;;;;;;;11.77;8.10;;;2.80;97.20;;;;;;6226129;28;20791;-68
2022/02/04 07:26:06;;;;;;;11.67;8.00;;;2.90;96.90;;;;;;6225938;28;20888;-68
2022/02/04 07:29:09;;;;;;;10.70;7.73;;;2.90;96.60;;;;;;6227827;28;20455;-68
2022/02/04 07:32:18;;;;;;;12.33;8.20;;;2.90;96.50;;;;;;6226767;28;20475;-68
2022/02/04 07:35:38;;;;;;;10.37;8.47;;;2.90;96.50;;;;;;6226941;28;20535;-68
2022/02/04 07:42:10;;;;;;;9.60;8.60;;;3.00;96.60;;;;;;6226455;28;20567;-69
2022/02/04 07:45:13;;;;;;;28.93;11.73;;;3.20;96.70;;;;;;6225313;28;20480;-68
2022/02/04 07:48:17;;;;;;;18.83;9.40;;;3.30;96.60;;;;;;6218325;28;20797;-68
2022/02/04 07:51:21;;;;;;;11.70;9.47;;;3.50;96.60;;;;;;6226792;28;20483;-69
2022/02/04 07:54:25;;;;;;;9.27;8.30;;;3.60;96.60;;;;;;6226302;28;20947;-69
2022/02/04 07:57:29;;;;;;;10.33;8.97;;;3.70;96.60;;;;;;6226182;28;20542;-68
2022/02/04 08:00:35;;;;;;;10.57;8.37;;;3.80;96.50;;;;;;6226085;28;20471;-68
2022/02/04 08:03:42;;;;;;;11.60;9.47;;;3.90;96.30;;;;;;6225987;28;20487;-69
2022/02/04 08:06:51;;;;;;;12.37;8.77;;;4.00;96.10;;;;;;6226096;28;20506;-69
2022/02/04 08:10:03;;;;;;;13.27;10.63;;;4.10;95.80;;;;;;6216591;28;20987;-69
2022/02/04 08:13:30;;;;;;;11.57;9.70;;;4.20;95.60;;;;;;6218308;28;20467;-68
2022/02/04 08:23:49;;;;;;;16.13;11.10;;;4.00;95.70;;;;;;6213427;28;20491;-68
2022/02/04 08:27:24;;;;;;;15.27;10.80;;;3.90;96.20;;;;;;6219084;28;20468;-68
2022/02/04 08:31:02;;;;;;;17.33;12.77;;;3.90;96.40;;;;;;6223592;28;20476;-69
2022/02/04 08:34:31;;;;;;;16.60;11.27;;;4.10;96.40;;;;;;6224003;28;20468;-69
2022/02/04 08:48:17;;;;;;;25.07;15.93;;;4.60;96.10;;;;;;6182372;28;20470;-69
2022/02/04 08:51:40;;;;;;;15.83;11.93;;;4.70;95.60;;;;;;6168817;28;20473;-68
2022/02/04 08:54:46;;;;;;;15.70;12.70;;;4.90;95.40;;;;;;6224240;28;20474;-69
2022/02/04 08:57:59;;;;;;;15.27;12.37;;;5.00;95.30;;;;;;6222849;28;20484;-69
2022/02/04 09:01:08;;;;;;;15.40;11.97;;;5.20;95.10;;;;;;6226419;28;20480;-70
2022/02/04 09:04:14;;;;;;;16.77;13.77;;;5.40;95.40;;;;;;6223940;28;20484;-66
2022/02/04 09:07:26;;;;;;;22.47;13.90;;;5.60;94.70;;;;;;6226252;28;20478;-66
2022/02/04 09:10:30;;;;;;;19.53;13.33;;;5.80;94.20;;;;;;6229081;28;20479;-68
2022/02/04 09:17:01;;;;;;;20.43;12.60;;;6.20;93.40;;;;;;6229639;28;20453;-67
2022/02/04 09:20:11;;;;;;;17.10;12.60;;;6.30;92.90;;;;;;6227286;28;20470;-70
2022/02/04 09:23:15;;;;;;;15.90;11.70;;;6.50;92.80;;;;;;6229258;28;20480;-68
2022/02/04 09:26:18;;;;;;;17.23;12.47;;;6.60;92.30;;;;;;6228772;28;20471;-68
2022/02/04 09:29:21;;;;;;;13.53;10.50;;;6.80;92.10;;;;;;6228477;28;20472;-68
2022/02/04 09:32:25;;;;;;;16.40;12.60;;;7.00;91.80;;;;;;6229121;28;20468;-67
2022/02/04 09:35:30;;;;;;;15.87;11.57;;;7.30;91.50;;;;;;6228010;28;20970;-69
2022/02/04 09:38:33;;;;;;;12.53;9.80;;;7.60;91.00;;;;;;6228790;28;20467;-68
2022/02/04 09:41:37;;;;;;;15.37;9.10;;;8.00;90.00;;;;;;6228348;28;20479;-70
2022/02/04 09:44:40;;;;;;;15.73;10.13;;;8.40;88.20;;;;;;6228791;28;20475;-69
2022/02/04 09:47:48;;;;;;;15.07;9.10;;;8.80;86.40;;;;;;6227956;28;20495;-69
2022/02/04 09:50:54;;;;;;;13.83;8.20;;;9.30;84.30;;;;;;6228280;28;20483;-67
2022/02/04 10:08:27;;;;;;;10.77;8.37;;;28.40;31.40;;;;;;6234997;28;20206;-71
2022/02/04 10:15:04;;;;;;;12.50;7.90;;;33.10;23.80;;;;;;6228123;28;20224;-72
2022/02/04 10:18:11;;;;;;;7.55;6.70;;;34.30;21.80;;;;;;6226947;28;20221;-73
2022/02/04 10:21:14;;;;;;;11.35;7.07;;;34.90;20.20;;;;;;6208468;28;20248;-72
2022/02/04 10:24:25;;;;;;;7.70;7.00;;;36.20;19.90;;;;;;6208872;28;20225;-71
2022/02/04 10:27:31;;;;;;;9.85;8.95;;;37.50;18.40;;;;;;6227280;28;20224;-70
2022/02/04 10:30:35;;;;;;;10.70;9.18;;;37.60;17.50;;;;;;6218378;28;20653;-70
2022/02/04 10:33:56;;;;;;;12.02;10.70;;;38.20;17.50;;;;;;6227003;28;20239;-70
2022/02/04 10:37:02;;;;;;;14.13;10.65;;;38.60;17.20;;;;;;6225592;28;20237;-71
2022/02/04 10:40:25;;;;;;;15.15;12.63;;;39.10;16.70;;;;;;6227228;28;20287;-69
2022/02/04 10:43:44;;;;;;;13.10;11.70;;;36.90;17.40;;;;;;6202630;28;20248;-68
2022/02/04 10:46:56;;;;;;;13.48;12.13;;;36.30;17.60;;;;;;6218364;28;20291;-71
2022/02/04 10:50:07;;;;;;;13.52;12.32;;;36.30;17.60;;;;;;6227023;28;20571;-72
2022/02/04 10:53:33;;;;;;;12.05;10.80;;;37.10;17.10;;;;;;6226974;28;20232;-69
2022/02/04 11:00:18;;;;;;;11.88;10.80;;;39.90;15.90;;;;;;6202505;28;20286;-68
2022/02/04 11:03:23;;;;;;;12.25;11.13;;;40.70;15.50;;;;;;6213716;28;20255;-68
2022/02/04 11:06:44;;;;;;;11.20;10.15;;;40.70;15.10;;;;;;6225505;28;20312;-70
2022/02/04 11:10:02;;;;;;;12.98;10.93;;;41.30;14.90;;;;;;6226445;28;20228;-68
2022/02/04 11:33:52;;;;;;;11.75;10.65;;;41.50;14.10;;;;;;6168090;28;20683;-69
2022/02/04 11:43:42;;;;;;;11.00;9.38;;;42.00;14.00;;;;;;6225279;28;20229;-69
2022/02/04 11:44:32;;;;;;;9.55;8.45;;;43.60;13.20;;;;;;6223884;28;20298;-69
2022/02/04 11:48:04;;;;;;;9.45;8.48;;;43.30;13.20;;;;;;6223236;28;20271;-69
2022/02/04 11:51:34;;;;;;;8.77;7.75;;;43.10;13.30;;;;;;6223129;28;20228;-69
2022/02/04 11:54:46;;;;;;;9.50;7.53;;;42.50;13.40;;;;;;6228895;28;20603;-69
2022/02/04 11:57:55;;;;;;;7.22;6.63;;;42.80;13.20;;;;;;6227469;28;20228;-69
2022/02/04 12:01:05;;;;;;;8.10;6.57;;;42.60;13.00;;;;;;6228128;28;20302;-68
2022/02/04 12:04:21;;;;;;;7.57;6.18;;;42.80;12.90;;;;;;6225443;28;20233;-68
2022/02/04 12:07:34;;;;;;;7.30;6.63;;;43.20;12.70;;;;;;6224713;28;20247;-67
2022/02/04 12:10:42;;;;;;;6.95;6.35;;;43.80;12.60;;;;;;6224692;28;20556;-68
2022/02/04 12:14:10;;;;;;;7.00;6.25;;;43.40;12.40;;;;;;6224501;28;20237;-70
2022/02/04 12:17:16;;;;;;;8.05;5.75;;;43.30;12.70;;;;;;6224212;28;20239;-68
2022/02/04 12:20:57;;;;;;;7.38;6.10;;;43.50;12.70;;;;;;6224639;28;20535;-68
2022/02/04 12:24:01;;;;;;;7.13;5.75;;;44.30;12.70;;;;;;6224761;28;20237;-70
2022/02/04 12:27:26;;;;;;;7.00;5.13;;;44.00;12.30;;;;;;6224251;28;20247;-70
2022/02/04 12:30:35;;;;;;;5.95;5.35;;;43.10;12.50;;;;;;6224365;28;20232;-70
2022/02/04 12:33:43;;;;;;;6.40;5.85;;;42.70;12.90;;;;;;6223905;28;20782;-69
2022/02/04 12:36:51;;;;;;;9.23;5.45;;;42.80;12.80;;;;;;6216886;28;20221;-70
2022/02/04 12:39:54;;;;;;;5.72;5.13;;;42.50;12.80;;;;;;6200011;28;20295;-68
2022/02/04 12:42:57;;;;;;;4.78;4.38;;;43.20;12.80;;;;;;6206349;28;20241;-70
2022/02/04 12:46:01;;;;;;;8.50;7.80;;;43.50;12.40;;;;;;6205799;28;20237;-70
2022/02/04 12:49:06;;;;;;;6.47;5.97;;;41.70;12.70;;;;;;6205239;28;20225;-69
2022/02/04 12:52:16;;;;;;;3.88;3.47;;;41.80;12.70;;;;;;6204336;28;20237;-71
2022/02/04 12:55:25;;;;;;;6.13;3.35;;;39.80;13.60;;;;;;6208588;28;20231;-70
2022/02/04 13:02:04;;;;;;;2.78;2.55;;;40.30;13.00;;;;;;6226325;28;20286;-68
2022/02/04 13:08:42;;;;;;;5.53;3.30;;;39.60;13.30;;;;;;6228430;28;20346;-70
2022/02/04 13:11:46;;;;;;;5.78;4.55;;;40.50;13.30;;;;;;6227989;28;20323;-70
2022/02/04 13:14:51;;;;;;;3.67;3.38;;;41.10;13.20;;;;;;6228235;28;20684;-70
2022/02/04 13:17:54;;;;;;;3.95;2.92;;;41.30;12.80;;;;;;6228395;28;20239;-71
2022/02/04 13:20:58;;;;;;;3.55;3.22;;;39.50;13.00;;;;;;6228134;28;20290;-71
2022/02/04 13:24:04;;;;;;;4.70;4.30;;;39.10;13.90;;;;;;6227819;28;20676;-70
2022/02/04 13:27:16;;;;;;;3.85;3.58;;;39.90;13.20;;;;;;6228379;28;20233;-71
2022/02/04 13:30:24;;;;;;;4.30;3.17;;;38.00;14.00;;;;;;6230612;28;20232;-70
2022/02/04 13:33:29;;;;;;;4.43;4.05;;;37.80;14.30;;;;;;6227638;28;20233;-72
2022/02/04 13:36:36;;;;;;;4.53;4.07;;;34.30;15.60;;;;;;6228093;28;20225;-71
2022/02/04 13:39:53;;;;;;;4.50;4.10;;;31.20;17.70;;;;;;6240339;28;20232;-73
2022/02/04 13:43:03;;;;;;;4.50;4.10;;;28.80;19.40;;;;;;6228987;28;20238;-70
2022/02/04 13:46:19;;;;;;;5.60;4.10;;;26.40;21.60;;;;;;6210737;28;20587;-72
2022/02/04 13:49:42;;;;;;;5.13;3.50;;;25.20;22.80;;;;;;6203794;28;20253;-70
2022/02/04 13:52:57;;;;;;;6.80;4.20;;;25.40;23.20;;;;;;6202480;28;20249;-69
2022/02/04 13:56:14;;;;;;;4.00;3.60;;;25.00;23.40;;;;;;6213345;28;20253;-68
2022/02/04 13:59:35;;;;;;;3.83;3.53;;;26.40;23.00;;;;;;6227464;28;20245;-68
2022/02/04 14:02:43;;;;;;;4.30;3.90;;;26.90;21.40;;;;;;6228046;28;20317;-69
2022/02/04 14:05:56;;;;;;;3.20;2.90;;;28.50;20.80;;;;;;6220997;28;20226;-68
2022/02/04 14:09:13;;;;;;;3.47;3.17;;;29.90;19.90;;;;;;6203329;28;20301;-69
2022/02/04 14:12:19;;;;;;;4.77;4.03;;;29.50;19.40;;;;;;6227666;28;20238;-68
2022/02/04 14:15:27;;;;;;;4.10;3.70;;;29.30;19.60;;;;;;6228196;28;20635;-69
2022/02/04 14:18:32;;;;;;;3.63;3.30;;;28.10;20.30;;;;;;6226523;28;20233;-68
2022/02/04 14:21:36;;;;;;;5.87;4.60;;;27.90;20.70;;;;;;6226481;28;20251;-67
2022/02/04 14:24:39;;;;;;;4.00;3.70;;;26.70;21.30;;;;;;6226317;28;20240;-67
2022/02/04 14:27:46;;;;;;;4.80;4.00;;;25.50;23.00;;;;;;6226024;28;20250;-68
2022/02/04 14:30:58;;;;;;;5.37;3.87;;;24.30;23.30;;;;;;6225984;28;20683;-67
2022/02/04 14:37:40;;;;;;;7.73;6.60;;;20.40;26.40;;;;;;6225867;28;20230;-67
2022/02/04 14:51:27;;;;;;;6.87;4.27;;;17.70;30.00;;;;;;6212460;28;20241;-70
2022/02/04 14:54:47;;;;;;;4.60;3.80;;;17.30;30.80;;;;;;6221788;28;20475;-71
2022/02/04 15:01:19;;;;;;;5.90;4.07;;;16.40;32.40;;;;;;6210227;28;20581;-69
2022/02/04 15:04:36;;;;;;;4.70;4.13;;;16.00;32.90;;;;;;6209837;28;20472;-71
2022/02/04 15:07:43;;;;;;;5.00;4.33;;;15.70;34.00;;;;;;6224971;28;20476;-70
2022/02/04 15:10:48;;;;;;;5.73;4.37;;;15.40;34.90;;;;;;6225713;28;20955;-70
2022/02/04 15:13:52;;;;;;;6.00;4.70;;;15.10;35.60;;;;;;6216851;28;20473;-72
2022/02/04 15:16:56;;;;;;;7.03;5.03;;;14.90;36.30;;;;;;6225044;28;20469;-70
2022/02/04 15:19:59;;;;;;;5.70;5.10;;;14.60;36.90;;;;;;6225656;28;20452;-70
2022/02/04 15:23:03;;;;;;;7.63;4.53;;;14.40;37.60;;;;;;6225148;28;20536;-70
2022/02/04 15:26:09;;;;;;;4.97;4.50;;;14.30;37.70;;;;;;6228906;28;20452;-69
2022/02/04 15:29:15;;;;;;;5.97;4.40;;;14.20;38.20;;;;;;6231686;28;20424;-71
2022/02/04 15:32:20;;;;;;;8.70;5.23;;;14.10;38.80;;;;;;6231835;28;20472;-70
2022/02/04 15:35:23;;;;;;;6.33;4.87;;;14.10;39.00;;;;;;6225436;28;20488;-70
2022/02/04 15:38:26;;;;;;;5.57;4.90;;;14.00;39.30;;;;;;6225095;28;20476;-70
2022/02/04 15:41:32;;;;;;;10.87;6.07;;;13.90;39.90;;;;;;6207752;28;20472;-71
2022/02/04 15:44:39;;;;;;;5.93;5.43;;;13.70;39.90;;;;;;6217557;28;20476;-70
2022/02/04 15:47:57;;;;;;;8.30;6.20;;;13.60;40.80;;;;;;6209715;28;21163;-70
2022/02/04 15:51:12;;;;;;;8.47;5.60;;;13.30;41.20;;;;;;6214991;28;20476;-71
2022/02/04 15:54:25;;;;;;;8.73;6.43;;;13.30;41.90;;;;;;6211498;28;20527;-70
2022/02/04 15:57:40;;;;;;;6.60;5.80;;;13.10;42.10;;;;;;6215000;28;20472;-70
2022/02/04 16:04:22;;;;;;;6.63;5.63;;;12.90;43.00;;;;;;6207819;28;20480;-70
2022/02/04 16:07:26;;;;;;;8.17;7.17;;;12.70;43.60;;;;;;6213016;28;20495;-70
2022/02/04 16:10:38;;;;;;;6.80;5.70;;;12.50;44.10;;;;;;6205265;28;20485;-70
2022/02/04 16:13:46;;;;;;;7.90;6.33;;;12.40;44.60;;;;;;6212186;28;20472;-70
2022/02/04 16:16:53;;;;;;;10.93;6.40;;;12.30;45.00;;;;;;6222877;28;20530;-67
2022/02/04 16:20:12;;;;;;;9.17;5.90;;;12.20;45.40;;;;;;6216413;28;20483;-67
2022/02/04 16:23:52;;;;;;;7.80;6.57;;;12.10;46.60;;;;;;6230219;28;20567;-66
2022/02/04 16:26:58;;;;;;;7.30;6.67;;;11.90;46.40;;;;;;6233082;28;20472;-69
2022/02/04 16:30:02;;;;;;;9.20;7.00;;;11.80;47.20;;;;;;6233767;28;20468;-68
2022/02/04 16:33:05;;;;;;;8.87;7.17;;;11.80;47.20;;;;;;6229756;28;20486;-67
2022/02/04 16:36:13;;;;;;;12.53;6.73;;;11.60;47.50;;;;;;6229653;28;20476;-66
2022/02/04 16:39:19;;;;;;;11.47;9.93;;;11.50;48.00;;;;;;6229696;28;20491;-69
2022/02/04 16:42:22;;;;;;;8.57;7.03;;;11.40;48.40;;;;;;6215671;28;20480;-68
2022/02/04 16:45:25;;;;;;;9.03;7.03;;;11.30;48.60;;;;;;6210083;28;20851;-69
2022/02/04 16:48:28;;;;;;;8.87;6.70;;;11.30;49.00;;;;;;6204201;28;20491;-69
2022/02/04 16:51:32;;;;;;;9.70;6.53;;;11.20;49.30;;;;;;6204143;28;20806;-69
2022/02/04 16:54:37;;;;;;;7.60;6.57;;;11.20;50.00;;;;;;6204450;28;20504;-68
2022/02/04 16:57:40;;;;;;;8.00;7.20;;;11.10;49.80;;;;;;6224579;28;21021;-68
2022/02/04 17:00:43;;;;;;;9.30;7.67;;;11.10;50.10;;;;;;6228683;28;20487;-69
2022/02/04 17:03:47;;;;;;;8.80;7.40;;;10.90;50.50;;;;;;6228857;28;20471;-69
2022/02/04 17:06:58;;;;;;;9.53;7.50;;;10.80;50.80;;;;;;6228482;28;20490;-68
2022/02/04 17:10:02;;;;;;;10.53;7.80;;;10.70;51.80;;;;;;6229157;28;20472;-67
2022/02/04 17:13:05;;;;;;;10.03;7.27;;;10.60;51.60;;;;;;6229097;28;20978;-67
2022/02/04 17:16:09;;;;;;;11.03;7.27;;;10.50;52.10;;;;;;6229130;28;20479;-67
2022/02/04 17:19:13;;;;;;;12.37;8.90;;;10.40;52.60;;;;;;6228278;28;20471;-67
2022/02/04 17:22:18;;;;;;;12.63;9.57;;;10.30;53.20;;;;;;6228243;28;20491;-66
2022/02/04 17:25:26;;;;;;;10.53;9.07;;;10.10;53.70;;;;;;6228122;28;20830;-67
2022/02/04 17:28:31;;;;;;;11.57;8.23;;;10.00;54.40;;;;;;6227478;28;20836;-65
2022/02/04 17:31:34;;;;;;;14.80;9.83;;;9.90;55.30;;;;;;6227954;28;20491;-67
2022/02/04 17:34:37;;;;;;;11.10;9.90;;;9.80;56.10;;;;;;6228166;28;20472;-66
2022/02/04 17:37:43;;;;;;;20.43;10.70;;;9.60;56.70;;;;;;6228197;28;20475;-65
2022/02/04 17:40:46;;;;;;;17.50;11.67;;;9.60;57.20;;;;;;6227747;28;20487;-67
2022/02/04 17:43:49;;;;;;;14.03;11.07;;;9.60;58.00;;;;;;6227575;28;20959;-67
2022/02/04 17:46:52;;;;;;;17.63;10.43;;;9.50;58.30;;;;;;6227779;28;20975;-67
2022/02/04 17:50:01;;;;;;;16.80;10.87;;;9.50;59.00;;;;;;6227396;28;20484;-69
2022/02/04 17:53:11;;;;;;;14.67;10.63;;;9.50;59.40;;;;;;6227130;28;20785;-67
2022/02/04 17:56:27;;;;;;;13.20;10.23;;;9.50;59.60;;;;;;6227893;28;20467;-67
2022/02/04 18:00:05;;;;;;;14.43;11.30;;;9.40;59.80;;;;;;6232344;28;20468;-67
2022/02/04 18:03:25;;;;;;;15.33;11.00;;;9.40;60.30;;;;;;6227786;28;20490;-66
2022/02/04 18:09:52;;;;;;;12.60;10.77;;;9.30;62.20;;;;;;6227144;28;20469;-65
2022/02/04 18:12:56;;;;;;;18.20;10.87;;;9.30;61.90;;;;;;6228046;28;20577;-66
2022/02/04 18:16:00;;;;;;;18.57;12.90;;;9.30;61.60;;;;;;6228445;28;20479;-67
2022/02/04 18:19:03;;;;;;;16.00;12.03;;;9.20;61.70;;;;;;6226947;28;20476;-66
2022/02/04 18:22:09;;;;;;;17.10;11.90;;;9.20;61.80;;;;;;6227367;28;20475;-66
2022/02/04 18:25:13;;;;;;;16.07;11.20;;;9.10;62.40;;;;;;6212098;28;20498;-69
2022/02/04 18:28:18;;;;;;;14.20;11.80;;;9.00;62.50;;;;;;6227021;28;20476;-69
2022/02/04 18:31:21;;;;;;;15.20;11.43;;;9.00;62.80;;;;;;6226589;28;20471;-68
2022/02/04 18:34:25;;;;;;;18.43;12.50;;;8.80;63.00;;;;;;6227117;28;20482;-69
2022/02/04 18:37:33;;;;;;;15.20;12.20;;;8.80;63.70;;;;;;6226790;28;20538;-68
2022/02/04 18:40:58;;;;;;;15.80;11.80;;;8.70;64.20;;;;;;6226706;28;20475;-68
2022/02/04 18:44:04;;;;;;;16.50;12.30;;;8.60;64.60;;;;;;6228565;28;20765;-68
2022/02/04 18:47:12;;;;;;;15.50;11.10;;;8.50;65.00;;;;;;6228396;28;20433;-68
2022/02/04 18:50:26;;;;;;;15.13;12.60;;;8.40;65.50;;;;;;6227952;28;20990;-68
2022/02/04 18:53:36;;;;;;;14.80;12.17;;;8.30;65.90;;;;;;6228535;28;20476;-68
2022/02/04 18:57:06;;;;;;;15.03;11.20;;;8.30;66.40;;;;;;6227947;28;20466;-68
2022/02/04 19:00:13;;;;;;;20.50;13.10;;;8.20;66.70;;;;;;6225048;28;20480;-69
2022/02/04 19:03:22;;;;;;;13.70;11.80;;;8.10;67.50;;;;;;6222619;28;20505;-68
2022/02/04 19:06:29;;;;;;;17.97;12.90;;;8.00;67.80;;;;;;6226761;28;20562;-68
2022/02/04 19:09:33;;;;;;;14.00;12.10;;;8.00;68.30;;;;;;6227509;28;20783;-67
2022/02/04 19:12:45;;;;;;;22.27;12.37;;;7.90;68.80;;;;;;6226448;28;20476;-67
2022/02/04 19:16:09;;;;;;;14.87;13.27;;;7.90;69.30;;;;;;6226323;28;20480;-66
2022/02/04 19:19:19;;;;;;;16.80;12.57;;;7.80;69.80;;;;;;6225921;28;20468;-67
2022/02/04 19:22:31;;;;;;;16.70;13.30;;;7.80;70.30;;;;;;6216654;28;20549;-67
2022/02/04 19:25:38;;;;;;;15.20;12.13;;;7.70;70.70;;;;;;6226058;28;20472;-66
2022/02/04 19:28:42;;;;;;;13.40;12.00;;;7.60;70.90;;;;;;6222190;28;20488;-67
2022/02/04 19:31:51;;;;;;;17.80;13.77;;;7.50;71.10;;;;;;6225864;28;20499;-67
2022/02/04 19:34:55;;;;;;;17.33;12.90;;;7.50;71.70;;;;;;6226100;28;20817;-67
2022/02/04 19:37:59;;;;;;;13.50;11.20;;;7.40;72.00;;;;;;6225139;28;20476;-67
2022/02/04 19:41:02;;;;;;;14.43;11.97;;;7.40;72.60;;;;;;6225873;28;20444;-67
2022/02/04 19:44:06;;;;;;;14.17;12.17;;;7.30;72.90;;;;;;6225167;28;20463;-67
2022/02/04 19:47:14;;;;;;;17.63;11.37;;;7.30;72.90;;;;;;6225466;28;20983;-68
2022/02/04 19:50:26;;;;;;;15.80;11.57;;;7.20;73.50;;;;;;6225385;28;20475;-68
2022/02/04 19:53:49;;;;;;;14.67;11.90;;;7.20;74.00;;;;;;6225556;28;20480;-66
2022/02/04 20:24:46;;;;;;;15.03;12.70;;;6.70;78.10;;;;;;6226453;28;20476;-69
2022/02/04 20:27:51;;;;;;;15.43;13.10;;;6.70;78.60;;;;;;6226518;28;20505;-69
2022/02/04 20:30:55;;;;;;;17.70;14.07;;;6.60;79.00;;;;;;6226479;28;20556;-68